Ramsay, Montana
Current Conditions -  °F | °C
As of 9:53 PM on Friday 28 Nov 2014 (Local Time) from KBTM Reporting Station
Overcast Overcast  
Wind Chill: 32°   Ceiling: 4100
Heat Index: 41°   Visibility: 10mi
Dew Point: 27°   Wind: 20mph
Humidity: 57%   Direction: 240°WSW
Pressure: 29.46"   Gusts: 32mph
Location:  46°N, 112.68°W
Report Text: KBTM 290453Z AUTO 24017G28KT 10SM BKN041 OVC070 05/M03 A2946 RMK AO2 PK WND 22034/0419 SLP963 T00501028
Loading
Personal Weather Stations






























Interactive Weather Map New forecast layout! Learn more

10-Day Weather Forecast

Advertisements
Track Severe Weather on mobile